createdAt,value
2018-02-08T00:00:29.180Z,80.25
2018-02-08T00:01:35.084Z,82.12
2018-02-08T00:02:41.559Z,73.32
2018-02-08T00:03:47.276Z,73.18
2018-02-08T00:04:53.759Z,68.47
2018-02-08T00:05:59.499Z,76.07
2018-02-08T00:07:05.220Z,72.87
2018-02-08T00:08:11.711Z,83.82
2018-02-08T00:09:17.413Z,78.43
2018-02-08T00:10:23.905Z,73.28
2018-02-08T00:11:29.863Z,71.68
2018-02-08T00:12:35.588Z,76.18
2018-02-08T00:13:41.312Z,72.65
2018-02-08T00:14:47.851Z,75.35
2018-02-08T00:15:53.740Z,71.32
2018-02-08T00:16:59.468Z,78.05
2018-02-08T00:18:05.186Z,75.82
2018-02-08T00:19:11.687Z,80.75
2018-02-08T00:20:17.393Z,76.95
2018-02-08T00:21:23.872Z,76.15
2018-02-08T00:22:45.249Z,78.37
2018-02-08T00:23:51.753Z,79.53
2018-02-08T00:24:57.473Z,71.90
2018-02-08T00:26:03.191Z,70.43
2018-02-08T00:27:09.693Z,74.18
2018-02-08T00:28:15.432Z,79.12
2018-02-08T00:29:21.160Z,67.47
2018-02-08T00:30:26.875Z,70.07
2018-02-08T00:31:33.387Z,70.15
2018-02-08T00:32:39.932Z,72.50
2018-02-08T00:33:45.679Z,68.32
2018-02-08T00:34:51.399Z,77.30
2018-02-08T00:35:57.122Z,90.75
2018-02-08T00:37:04.011Z,108.28
2018-02-08T00:38:09.726Z,87.75
2018-02-08T00:39:16.246Z,79.75
2018-02-08T00:40:21.963Z,87.97
2018-02-08T00:41:27.688Z,80.15
2018-02-08T00:42:33.417Z,70.82
2018-02-08T00:43:39.152Z,73.47
2018-02-08T00:44:45.672Z,83.18
2018-02-08T00:45:51.387Z,84.78
2018-02-08T00:46:57.106Z,76.20
2018-02-08T00:48:03.584Z,77.10
2018-02-08T00:49:09.317Z,80.03
2018-02-08T00:50:15.041Z,74.80
2018-02-08T00:51:20.768Z,74.32
2018-02-08T00:52:27.264Z,72.82
2018-02-08T00:53:32.998Z,65.87
2018-02-08T00:54:38.711Z,72.37
2018-02-08T00:55:45.224Z,80.05
2018-02-08T00:56:50.946Z,76.15
2018-02-08T00:57:56.672Z,75.65
2018-02-08T00:59:03.152Z,70.30
2018-02-08T01:00:08.873Z,76.10
2018-02-08T01:01:14.627Z,70.03
2018-02-08T01:02:20.336Z,71.47
2018-02-08T01:03:26.825Z,71.30
2018-02-08T01:04:32.550Z,73.72
2018-02-08T01:05:38.267Z,67.05
2018-02-08T01:06:44.780Z,69.55
2018-02-08T01:07:50.509Z,69.62
2018-02-08T01:08:56.243Z,63.47
2018-02-08T01:10:01.960Z,70.50
2018-02-08T01:11:07.696Z,70.37
2018-02-08T01:12:14.208Z,68.18
2018-02-08T01:13:19.932Z,71.87
2018-02-08T01:14:25.651Z,72.97
2018-02-08T01:15:31.369Z,71.15
2018-02-08T01:16:37.856Z,60.45
2018-02-08T01:17:43.599Z,71.50
2018-02-08T01:18:49.320Z,70.07
2018-02-08T01:19:55.049Z,65.95
2018-02-08T01:21:01.540Z,70.60
2018-02-08T01:22:07.264Z,70.20
2018-02-08T01:23:13.022Z,70.75
2018-02-08T01:24:18.753Z,70.93
2018-02-08T01:25:24.476Z,66.80
2018-02-08T01:26:30.964Z,73.55
2018-02-08T01:27:36.689Z,68.25
2018-02-08T01:28:42.450Z,72.75
2018-02-08T01:29:48.177Z,68.18
2018-02-08T01:30:53.883Z,66.53
2018-02-08T01:31:59.608Z,71.62
2018-02-08T01:33:05.317Z,79.00
2018-02-08T01:34:11.061Z,67.55
2018-02-08T01:35:16.787Z,73.57
2018-02-08T01:36:22.503Z,71.47
2018-02-08T01:37:28.996Z,75.05
2018-02-08T01:38:34.723Z,69.28
2018-02-08T01:39:40.508Z,74.85
2018-02-08T01:40:46.231Z,69.60
2018-02-08T01:41:51.950Z,58.72
2018-02-08T01:42:57.672Z,73.40
2018-02-08T01:44:04.181Z,67.32
2018-02-08T01:45:09.916Z,74.28
2018-02-08T01:46:15.640Z,64.75
2018-02-08T01:47:21.369Z,90.50
2018-02-08T01:48:27.102Z,71.78
2018-02-08T01:49:46.857Z,69.75
2018-02-08T01:50:53.360Z,64.95
2018-02-08T01:51:59.139Z,76.75
2018-02-08T01:53:04.863Z,71.70
2018-02-08T01:54:10.592Z,71.28
2018-02-08T01:55:16.309Z,63.58
2018-02-08T01:56:22.059Z,71.25
2018-02-08T01:57:27.787Z,66.62
2018-02-08T01:58:33.508Z,71.03
2018-02-08T01:59:40.288Z,66.28
2018-02-08T02:00:46.448Z,69.20
2018-02-08T02:01:52.199Z,69.32
2018-02-08T02:02:57.945Z,65.82
2018-02-08T02:04:03.419Z,73.82
2018-02-08T02:05:09.141Z,66.72
2018-02-08T02:06:14.868Z,66.57
2018-02-08T02:07:20.616Z,68.32
2018-02-08T02:08:26.347Z,72.03
2018-02-08T02:09:32.068Z,61.35
2018-02-08T02:10:37.775Z,73.80
2018-02-08T02:11:44.281Z,66.72
2018-02-08T02:12:50.095Z,69.72
2018-02-08T02:13:56.575Z,71.93
2018-02-08T02:15:02.296Z,80.20
2018-02-08T02:16:08.019Z,70.20
2018-02-08T02:17:14.512Z,68.68
2018-02-08T02:18:20.304Z,70.28
2018-02-08T02:19:25.523Z,66.40
2018-02-08T02:20:31.259Z,80.05
2018-02-08T02:21:36.972Z,71.87
2018-02-08T02:22:42.709Z,70.07
2018-02-08T02:23:48.453Z,69.55
2018-02-08T02:24:54.179Z,79.00
2018-02-08T02:25:59.912Z,75.72
2018-02-08T02:27:05.637Z,72.18
2018-02-08T02:28:12.117Z,71.47
2018-02-08T02:29:17.862Z,71.80
2018-02-08T02:30:23.585Z,67.78
2018-02-08T02:31:29.309Z,72.55
2018-02-08T02:32:35.809Z,65.07
2018-02-08T02:33:41.528Z,69.32
2018-02-08T02:34:48.035Z,69.05
2018-02-08T02:35:53.559Z,62.00
2018-02-08T02:36:59.265Z,74.62
2018-02-08T02:38:04.660Z,67.05
2018-02-08T02:39:10.393Z,74.75
2018-02-08T02:40:16.139Z,71.00
2018-02-08T02:41:21.875Z,73.70
2018-02-08T02:42:27.587Z,61.78
2018-02-08T02:43:33.369Z,69.65
2018-02-08T02:44:39.851Z,70.65
2018-02-08T02:45:46.380Z,65.05
2018-02-08T02:46:52.125Z,75.07
2018-02-08T02:47:59.344Z,75.03
2018-02-08T02:49:05.078Z,69.50
2018-02-08T02:50:11.569Z,74.30
2018-02-08T02:51:17.312Z,67.75
2018-02-08T02:52:23.039Z,72.60
2018-02-08T02:53:28.765Z,66.50
2018-02-08T02:54:34.298Z,72.12
2018-02-08T02:55:40.028Z,70.28
2018-02-08T02:56:46.541Z,66.70
2018-02-08T02:57:52.260Z,69.20
2018-02-08T02:58:57.985Z,72.90
2018-02-08T03:00:03.281Z,68.03
2018-02-08T03:01:09.031Z,75.97
2018-02-08T03:02:14.768Z,68.82
2018-02-08T03:03:21.256Z,65.25
2018-02-08T03:04:26.983Z,65.20
2018-02-08T03:05:33.481Z,77.87
2018-02-08T03:06:39.180Z,76.85
2018-02-08T03:07:45.691Z,67.07
2018-02-08T03:08:51.433Z,72.07
2018-02-08T03:09:57.147Z,72.43
2018-02-08T03:11:02.879Z,75.85
2018-02-08T03:12:08.597Z,62.70
2018-02-08T03:13:15.118Z,72.40
2018-02-08T03:14:20.827Z,65.50
2018-02-08T03:15:26.553Z,67.25
2018-02-08T03:16:33.052Z,75.72
2018-02-08T03:17:38.776Z,70.70
2018-02-08T03:18:44.522Z,71.20
2018-02-08T03:19:50.252Z,72.37
2018-02-08T03:20:55.987Z,72.50
2018-02-08T03:22:01.688Z,61.37
2018-02-08T03:23:07.076Z,67.50
2018-02-08T03:24:13.587Z,67.28
2018-02-08T03:25:20.085Z,70.60
2018-02-08T03:26:25.812Z,70.85
2018-02-08T03:27:31.534Z,74.72
2018-02-08T03:28:38.043Z,73.20
2018-02-08T03:29:43.617Z,67.30
2018-02-08T03:30:54.613Z,73.87
2018-02-08T03:32:00.460Z,70.12
2018-02-08T03:33:06.179Z,74.43
2018-02-08T03:34:12.671Z,67.93
2018-02-08T03:35:18.428Z,73.72
2018-02-08T03:36:24.151Z,68.57
2018-02-08T03:37:29.880Z,74.22
2018-02-08T03:38:35.625Z,73.62
2018-02-08T03:39:41.335Z,70.40
2018-02-08T03:40:47.075Z,81.07
2018-02-08T03:41:53.566Z,65.32
2018-02-08T03:43:00.058Z,77.65
2018-02-08T03:44:05.767Z,74.12
2018-02-08T03:45:11.495Z,74.40
2018-02-08T03:46:18.008Z,79.03
2018-02-08T03:47:23.728Z,63.30
2018-02-08T03:48:29.443Z,75.65
2018-02-08T03:49:35.165Z,78.30
2018-02-08T03:50:41.651Z,71.95
2018-02-08T03:51:47.391Z,80.05
2018-02-08T03:52:53.112Z,72.10
2018-02-08T03:53:58.835Z,71.10
2018-02-08T03:55:05.003Z,70.25
2018-02-08T03:56:11.527Z,66.78
2018-02-08T03:57:17.445Z,74.10
2018-02-08T03:58:22.836Z,71.75
2018-02-08T03:59:29.328Z,66.37
2018-02-08T04:00:35.055Z,70.20
2018-02-08T04:01:40.772Z,70.72
2018-02-08T04:02:47.279Z,74.90
2018-02-08T04:03:53.017Z,74.37
2018-02-08T04:04:58.788Z,61.80
2018-02-08T04:06:04.517Z,68.57
2018-02-08T04:07:10.236Z,70.15
2018-02-08T04:08:15.983Z,67.82
2018-02-08T04:09:21.716Z,65.50
2018-02-08T04:10:27.436Z,71.40
2018-02-08T04:11:33.160Z,62.85
2018-02-08T04:12:39.645Z,73.47
2018-02-08T04:13:45.448Z,63.50
2018-02-08T04:14:51.954Z,69.47
2018-02-08T04:15:57.830Z,63.35
2018-02-08T04:17:03.555Z,68.18
2018-02-08T04:18:09.311Z,66.47
2018-02-08T04:19:15.060Z,78.72
2018-02-08T04:20:20.793Z,66.97
2018-02-08T04:21:26.514Z,65.47
2018-02-08T04:22:32.242Z,66.72
2018-02-08T04:23:37.978Z,64.05
2018-02-08T04:24:43.715Z,92.25
2018-02-08T04:25:49.460Z,77.70
2018-02-08T04:26:55.179Z,72.60
2018-02-08T04:28:01.670Z,70.47
2018-02-08T04:29:07.389Z,76.53
2018-02-08T04:30:13.142Z,62.80
2018-02-08T04:31:18.864Z,74.93
2018-02-08T04:32:25.339Z,75.93
2018-02-08T04:33:31.088Z,73.10
2018-02-08T04:34:36.797Z,75.68
2018-02-08T04:35:43.311Z,77.97
2018-02-08T04:36:49.040Z,68.20
2018-02-08T04:37:54.782Z,80.87
2018-02-08T04:39:17.430Z,72.15
2018-02-08T04:40:39.975Z,75.75
2018-02-08T04:42:03.397Z,68.65
2018-02-08T04:43:26.083Z,84.50
2018-02-08T04:44:48.452Z,74.87
2018-02-08T04:46:10.896Z,77.50
2018-02-08T04:47:28.456Z,69.65
2018-02-08T04:48:34.192Z,70.97
2018-02-08T04:49:39.900Z,79.37
2018-02-08T04:50:45.633Z,67.90
2018-02-08T04:51:51.364Z,80.12
2018-02-08T04:52:57.104Z,76.07
2018-02-08T04:54:02.857Z,73.18
2018-02-08T04:55:08.780Z,73.53
2018-02-08T04:56:15.272Z,76.60
2018-02-08T04:57:20.987Z,74.62
2018-02-08T04:58:27.493Z,77.55
2018-02-08T04:59:33.208Z,84.13
2018-02-08T05:00:38.936Z,77.50
2018-02-08T05:01:44.459Z,80.97
2018-02-08T05:02:51.468Z,89.82
2018-02-08T05:03:57.206Z,96.10
2018-02-08T05:05:02.923Z,72.82
2018-02-08T05:06:08.637Z,75.37
2018-02-08T05:07:14.351Z,78.78
2018-02-08T05:08:20.064Z,75.50
2018-02-08T05:09:25.821Z,76.32
2018-02-08T05:10:31.543Z,84.15
2018-02-08T05:11:37.267Z,79.97
2018-02-08T05:12:42.979Z,75.85
2018-02-08T05:13:48.760Z,72.22
2018-02-08T05:14:54.656Z,76.72
2018-02-08T05:16:01.142Z,75.62
2018-02-08T05:17:07.622Z,84.25
2018-02-08T05:18:13.337Z,81.03
2018-02-08T05:19:19.827Z,67.97
2018-02-08T05:20:25.571Z,67.87
2018-02-08T05:21:31.287Z,72.37
2018-02-08T05:22:37.018Z,90.25
2018-02-08T05:23:43.503Z,76.10
2018-02-08T05:24:49.204Z,78.87
2018-02-08T05:25:54.946Z,81.53
2018-02-08T05:27:00.666Z,83.75
2018-02-08T05:28:06.384Z,71.40
2018-02-08T05:29:12.107Z,91.35
2018-02-08T05:30:17.825Z,81.78
2018-02-08T05:31:24.147Z,70.72
2018-02-08T05:32:29.877Z,73.32
2018-02-08T05:33:35.606Z,75.47
2018-02-08T05:34:41.333Z,69.00
2018-02-08T05:35:47.045Z,73.10
2018-02-08T05:36:52.795Z,65.70
2018-02-08T05:37:58.523Z,68.15
2018-02-08T05:39:03.924Z,75.12
2018-02-08T05:40:09.637Z,73.93
2018-02-08T05:41:15.350Z,77.10
2018-02-08T05:42:21.087Z,80.00
2018-02-08T05:43:26.813Z,73.70
2018-02-08T05:44:32.521Z,77.85
2018-02-08T05:45:39.004Z,82.12
2018-02-08T05:46:45.246Z,74.80
2018-02-08T05:47:50.983Z,78.43
2018-02-08T05:48:56.699Z,79.95
2018-02-08T05:50:02.412Z,80.10
2018-02-08T05:51:08.147Z,70.45
2018-02-08T05:52:13.877Z,74.45
2018-02-08T05:53:20.371Z,78.62
2018-02-08T05:54:25.902Z,75.25
2018-02-08T05:55:31.616Z,78.20
2018-02-08T05:56:37.343Z,72.70
2018-02-08T05:57:43.831Z,74.30
2018-02-08T05:58:49.592Z,84.87
2018-02-08T05:59:55.308Z,77.80
2018-02-08T06:01:01.016Z,76.05
2018-02-08T06:02:10.435Z,71.25
2018-02-08T06:03:16.907Z,85.00
2018-02-08T06:04:23.424Z,75.68
2018-02-08T06:05:29.152Z,79.50
2018-02-08T06:06:34.595Z,152.20
2018-02-08T06:07:40.320Z,169.80
2018-02-08T06:08:46.809Z,111.93
2018-02-08T06:09:52.557Z,117.35
2018-02-08T06:10:59.048Z,85.95
2018-02-08T06:12:04.827Z,100.75
2018-02-08T06:13:10.551Z,83.22
2018-02-08T06:14:16.272Z,85.05
2018-02-08T06:15:22.039Z,72.82
2018-02-08T06:16:27.756Z,75.80
2018-02-08T06:17:34.231Z,72.37
2018-02-08T06:18:39.959Z,82.53
2018-02-08T06:19:45.691Z,75.37
2018-02-08T06:20:52.225Z,71.55
2018-02-08T06:21:57.935Z,75.78
2018-02-08T06:23:03.676Z,75.45
2018-02-08T06:24:09.411Z,66.80
2018-02-08T06:25:15.129Z,67.85
2018-02-08T06:26:20.899Z,73.82
2018-02-08T06:27:26.603Z,74.82
2018-02-08T06:28:33.135Z,77.87
2018-02-08T06:29:39.036Z,78.03
2018-02-08T06:30:44.776Z,71.75
2018-02-08T06:31:50.523Z,63.60
2018-02-08T06:32:56.242Z,71.20
2018-02-08T06:34:01.960Z,75.12
2018-02-08T06:35:08.453Z,74.10
2018-02-08T06:36:14.169Z,76.15
2018-02-08T06:37:19.913Z,68.65
2018-02-08T06:38:25.875Z,69.65
2018-02-08T06:39:31.600Z,71.80
2018-02-08T06:40:37.331Z,71.20
2018-02-08T06:41:43.828Z,74.22
2018-02-08T06:42:49.984Z,75.22
2018-02-08T06:43:55.703Z,67.43
2018-02-08T06:45:01.430Z,75.22
2018-02-08T06:46:07.915Z,76.30
2018-02-08T06:47:14.152Z,71.28
2018-02-08T06:48:20.649Z,73.37
2018-02-08T06:49:26.359Z,76.22
2018-02-08T06:50:32.087Z,73.28
2018-02-08T06:51:37.791Z,81.10
2018-02-08T06:52:43.538Z,80.28
2018-02-08T06:53:49.280Z,77.03
2018-02-08T06:54:55.782Z,71.60
2018-02-08T06:56:01.560Z,79.00
2018-02-08T06:57:07.273Z,76.68
2018-02-08T06:58:13.020Z,73.95
2018-02-08T06:59:18.955Z,78.55
2018-02-08T07:00:24.688Z,72.40
2018-02-08T07:01:30.419Z,86.37
2018-02-08T07:02:36.147Z,78.28
2018-02-08T07:03:42.623Z,77.97
2018-02-08T07:04:48.366Z,79.78
2018-02-08T07:05:54.079Z,80.55
2018-02-08T07:07:00.572Z,73.18
2018-02-08T07:08:06.301Z,76.82
2018-02-08T07:09:12.025Z,72.62
2018-02-08T07:10:18.350Z,74.28
2018-02-08T07:11:24.071Z,77.78
2018-02-08T07:12:29.803Z,74.03
2018-02-08T07:13:35.522Z,79.80
2018-02-08T07:14:41.265Z,73.95
2018-02-08T07:15:47.014Z,86.45
2018-02-08T07:16:52.501Z,79.53
2018-02-08T07:17:58.265Z,76.47
2018-02-08T07:19:04.136Z,77.32
2018-02-08T07:20:12.930Z,78.43
2018-02-08T07:21:19.435Z,79.85
2018-02-08T07:22:25.143Z,77.18
2018-02-08T07:23:30.876Z,82.03
2018-02-08T07:24:36.607Z,67.90
2018-02-08T07:25:42.348Z,82.80
2018-02-08T07:26:48.096Z,79.22
2018-02-08T07:27:53.825Z,82.72
2018-02-08T07:29:00.309Z,78.78
2018-02-08T07:30:05.378Z,71.03
2018-02-08T07:31:11.104Z,82.60
2018-02-08T07:32:16.835Z,81.95
2018-02-08T07:33:22.556Z,79.65
2018-02-08T07:34:28.462Z,78.68
2018-02-08T07:35:34.952Z,84.70
2018-02-08T07:36:40.672Z,84.05
2018-02-08T07:37:47.192Z,81.03
2018-02-08T07:38:52.907Z,80.43
2018-02-08T07:39:58.419Z,76.43
2018-02-08T07:41:04.177Z,81.10
2018-02-08T07:42:09.896Z,80.18
2018-02-08T07:43:15.647Z,85.20
2018-02-08T07:44:22.127Z,75.45
2018-02-08T07:45:27.861Z,76.05
2018-02-08T07:46:33.623Z,72.25
2018-02-08T07:47:39.455Z,78.85
2018-02-08T07:48:45.196Z,82.93
2018-02-08T07:49:50.916Z,81.75
2018-02-08T07:50:56.632Z,74.57
2018-02-08T07:52:03.447Z,79.93
2018-02-08T07:53:09.204Z,84.55
2018-02-08T07:54:14.987Z,79.50
2018-02-08T07:55:21.689Z,77.62
2018-02-08T07:56:27.594Z,88.35
2018-02-08T07:57:34.318Z,78.50
2018-02-08T07:58:40.234Z,76.12
2018-02-08T07:59:46.135Z,81.32
2018-02-08T08:00:52.666Z,82.32
2018-02-08T08:01:58.783Z,78.90
2018-02-08T08:03:04.738Z,87.15
2018-02-08T08:04:10.709Z,88.53
2018-02-08T08:05:17.251Z,74.12
2018-02-08T08:06:23.082Z,82.28
2018-02-08T08:07:28.976Z,91.00
2018-02-08T08:08:35.783Z,85.80
2018-02-08T08:09:41.542Z,89.57
2018-02-08T08:10:47.561Z,79.37
2018-02-08T08:11:53.828Z,84.60
2018-02-08T08:12:59.773Z,79.22
2018-02-08T08:14:05.665Z,90.20
2018-02-08T08:15:12.706Z,77.75
2018-02-08T08:16:18.993Z,75.22
2018-02-08T08:17:25.804Z,74.90
2018-02-08T08:18:31.871Z,81.37
2018-02-08T08:19:37.756Z,87.50
2018-02-08T08:20:46.725Z,79.28
2018-02-08T08:21:52.704Z,84.85
2018-02-08T08:22:58.952Z,81.03
2018-02-08T08:24:04.891Z,79.50
2018-02-08T08:25:10.890Z,81.15
2018-02-08T08:26:17.588Z,86.15
2018-02-08T08:27:23.555Z,85.70
2018-02-08T08:28:30.347Z,82.95
2018-02-08T08:29:37.183Z,82.57
2018-02-08T08:30:43.820Z,73.68
2018-02-08T08:31:49.534Z,82.43
2018-02-08T08:32:55.284Z,80.30
2018-02-08T08:34:01.264Z,75.87
2018-02-08T08:35:07.156Z,83.80
2018-02-08T08:36:14.019Z,82.28
2018-02-08T08:37:21.256Z,84.43
2018-02-08T08:38:26.927Z,83.72
2018-02-08T08:39:33.709Z,81.35
2018-02-08T08:40:40.504Z,80.18
2018-02-08T08:41:46.358Z,77.18
2018-02-08T08:42:53.420Z,79.75
2018-02-08T08:43:59.471Z,71.25
2018-02-08T08:45:05.239Z,80.53
2018-02-08T08:46:10.839Z,84.85
2018-02-08T08:47:16.741Z,81.55
2018-02-08T08:48:22.726Z,83.25
2018-02-08T08:49:28.788Z,82.00
2018-02-08T08:50:34.845Z,86.40
2018-02-08T08:51:41.705Z,80.40
2018-02-08T08:52:47.439Z,82.22
2018-02-08T08:53:53.395Z,83.93
2018-02-08T08:54:59.268Z,82.15
2018-02-08T08:56:04.937Z,76.00
2018-02-08T08:57:11.539Z,85.03
2018-02-08T08:58:17.353Z,77.78
2018-02-08T08:59:23.939Z,80.30
2018-02-08T09:00:30.081Z,81.22
2018-02-08T09:01:35.977Z,85.55
2018-02-08T09:02:42.300Z,88.18
2018-02-08T09:03:47.746Z,82.78
2018-02-08T09:04:53.772Z,77.65
2018-02-08T09:05:59.684Z,85.72
2018-02-08T09:07:06.380Z,82.35
2018-02-08T09:08:12.541Z,76.60
2018-02-08T09:09:18.399Z,78.22
2018-02-08T09:10:24.530Z,83.15
2018-02-08T09:11:30.538Z,68.22
2018-02-08T09:12:37.347Z,75.25
2018-02-08T09:13:43.253Z,75.85
2018-02-08T09:14:49.557Z,81.22
2018-02-08T09:15:55.577Z,78.65
2018-02-08T09:17:01.361Z,83.40
2018-02-08T09:18:07.086Z,81.28
2018-02-08T09:19:12.816Z,81.90
2018-02-08T09:20:18.524Z,80.35
2018-02-08T09:21:25.006Z,83.93
2018-02-08T09:22:30.738Z,84.57
2018-02-08T09:23:37.224Z,85.68
2018-02-08T09:24:42.929Z,81.63
2018-02-08T09:25:49.194Z,78.30
2018-02-08T09:26:55.660Z,78.97
2018-02-08T09:28:01.392Z,74.53
2018-02-08T09:29:07.270Z,75.47
2018-02-08T09:30:13.294Z,75.30
2018-02-08T09:31:19.321Z,77.05
2018-02-08T09:32:25.285Z,80.72
2018-02-08T09:33:31.411Z,75.87
2018-02-08T09:34:38.122Z,86.20
2018-02-08T09:35:44.115Z,82.55
2018-02-08T09:36:50.271Z,84.97
2018-02-08T09:37:57.423Z,87.97
2018-02-08T09:39:03.548Z,71.53
2018-02-08T09:40:08.936Z,82.95
2018-02-08T09:41:15.420Z,83.45
2018-02-08T09:42:21.222Z,85.07
2018-02-08T09:43:26.943Z,80.53
2018-02-08T09:44:32.817Z,87.47
2018-02-08T09:45:39.296Z,86.93
2018-02-08T09:46:45.124Z,78.25
2018-02-08T09:47:52.336Z,82.05
2018-02-08T09:48:58.243Z,78.15
2018-02-08T09:50:04.762Z,80.65
2018-02-08T09:51:10.970Z,87.30
2018-02-08T09:52:16.686Z,82.32
2018-02-08T09:53:22.388Z,82.53
2018-02-08T09:54:28.128Z,87.78
2018-02-08T09:55:33.872Z,85.38
2018-02-08T09:56:39.578Z,89.65
2018-02-08T09:57:45.300Z,78.93
2018-02-08T09:58:51.786Z,86.45
2018-02-08T09:59:57.488Z,77.35
2018-02-08T10:01:04.076Z,80.38
2018-02-08T10:02:09.781Z,82.37
2018-02-08T10:03:15.508Z,85.22
2018-02-08T10:04:21.226Z,75.40
2018-02-08T10:05:26.941Z,86.50
2018-02-08T10:06:32.679Z,84.03
2018-02-08T10:07:38.524Z,81.20
2018-02-08T10:08:44.225Z,80.28
2018-02-08T10:09:49.937Z,76.22
2018-02-08T10:10:55.459Z,83.55
2018-02-08T10:12:01.197Z,87.70
2018-02-08T10:13:06.788Z,77.28
2018-02-08T10:14:12.492Z,78.07
2018-02-08T10:15:18.018Z,80.78
2018-02-08T10:16:23.772Z,73.87
2018-02-08T10:17:29.521Z,76.97
2018-02-08T10:18:35.291Z,86.72
2018-02-08T10:19:41.784Z,83.78
2018-02-08T10:20:47.488Z,77.37
2018-02-08T10:21:53.959Z,79.72
2018-02-08T10:22:59.691Z,79.20
2018-02-08T10:24:06.171Z,84.95
2018-02-08T10:25:12.120Z,86.90
2018-02-08T10:26:17.852Z,87.50
2018-02-08T10:27:23.560Z,89.30
2018-02-08T10:28:29.296Z,90.10
2018-02-08T10:29:35.004Z,75.30
2018-02-08T10:30:40.703Z,83.57
2018-02-08T10:31:47.183Z,91.15
2018-02-08T10:32:52.906Z,78.45
2018-02-08T10:33:59.434Z,84.18
2018-02-08T10:35:05.367Z,77.00
2018-02-08T10:36:11.547Z,83.85
2018-02-08T10:37:18.147Z,88.70
2018-02-08T10:38:24.878Z,87.47
2018-02-08T10:39:30.854Z,87.80
2018-02-08T10:40:36.909Z,78.20
2018-02-08T10:41:42.894Z,82.88
2018-02-08T10:42:49.827Z,81.43
2018-02-08T10:43:55.784Z,92.70
2018-02-08T10:45:01.712Z,79.10
2018-02-08T10:46:07.654Z,85.57
2018-02-08T10:47:13.599Z,86.25
2018-02-08T10:48:19.540Z,93.12
2018-02-08T10:49:25.492Z,85.68
2018-02-08T10:50:31.625Z,91.60
2018-02-08T10:51:37.688Z,81.25
2018-02-08T10:52:43.721Z,88.28
2018-02-08T10:53:49.699Z,88.20
2018-02-08T10:54:55.610Z,84.07
2018-02-08T10:56:03.409Z,86.47
2018-02-08T10:57:09.570Z,81.78
2018-02-08T10:58:15.304Z,94.78
2018-02-08T10:59:21.677Z,85.72
2018-02-08T11:00:27.633Z,85.40
2018-02-08T11:01:33.766Z,85.20
2018-02-08T11:02:39.787Z,82.80
2018-02-08T11:03:46.245Z,89.10
2018-02-08T11:04:52.302Z,80.18
2018-02-08T11:05:58.281Z,96.00
2018-02-08T11:07:04.516Z,88.30
2018-02-08T11:08:10.343Z,79.57
2018-02-08T11:09:17.075Z,91.57
2018-02-08T11:10:25.640Z,93.43
2018-02-08T11:11:31.584Z,92.30
2018-02-08T11:12:37.342Z,98.45
2018-02-08T11:13:44.091Z,94.62
2018-02-08T11:14:50.140Z,85.87
2018-02-08T11:15:56.153Z,90.53
2018-02-08T11:17:02.832Z,85.10
2018-02-08T11:18:09.695Z,89.78
2018-02-08T11:19:15.728Z,86.30
2018-02-08T11:20:22.378Z,84.22
2018-02-08T11:21:28.405Z,92.65
2018-02-08T11:22:34.356Z,86.45
2018-02-08T11:23:40.362Z,91.40
2018-02-08T11:24:46.311Z,90.53
2018-02-08T11:25:52.333Z,96.37
2018-02-08T11:26:58.330Z,92.22
2018-02-08T11:28:04.272Z,83.70
2018-02-08T11:29:10.405Z,92.07
2018-02-08T11:30:16.263Z,83.57
2018-02-08T11:31:22.105Z,87.35
2018-02-08T11:32:28.241Z,86.72
2018-02-08T11:33:34.191Z,90.12
2018-02-08T11:34:40.123Z,91.78
2018-02-08T11:35:46.963Z,90.30
2018-02-08T11:36:53.771Z,83.70
2018-02-08T11:37:59.911Z,82.97
2018-02-08T11:39:05.153Z,85.82
2018-02-08T11:40:11.458Z,85.10
2018-02-08T11:41:17.275Z,95.47
2018-02-08T11:42:23.219Z,90.30
2018-02-08T11:43:29.162Z,94.75
2018-02-08T11:44:35.079Z,87.75
2018-02-08T11:45:41.029Z,90.10
2018-02-08T11:46:46.965Z,88.50
2018-02-08T11:47:52.925Z,85.95
2018-02-08T11:48:58.857Z,91.68
2018-02-08T11:50:04.452Z,92.75
2018-02-08T11:51:11.313Z,86.07
2018-02-08T11:52:17.031Z,90.47
2018-02-08T11:53:22.635Z,84.43
2018-02-08T11:54:30.018Z,88.10
2018-02-08T11:55:36.075Z,88.40
2018-02-08T11:56:42.034Z,97.00
2018-02-08T11:57:47.768Z,90.60
2018-02-08T11:58:53.528Z,90.18
2018-02-08T11:59:59.245Z,89.22
2018-02-08T12:01:04.979Z,80.12
2018-02-08T12:02:10.703Z,94.32
2018-02-08T12:03:17.183Z,78.68
2018-02-08T12:04:22.899Z,92.75
2018-02-08T12:05:29.390Z,84.18
2018-02-08T12:06:35.156Z,87.25
2018-02-08T12:07:40.894Z,86.35
2018-02-08T12:08:46.621Z,87.93
2018-02-08T12:09:52.343Z,88.28
2018-02-08T12:10:58.065Z,88.15
2018-02-08T12:12:04.586Z,94.15
2018-02-08T12:13:10.513Z,90.45
2018-02-08T12:14:16.219Z,87.82
2018-02-08T12:15:23.070Z,88.10
2018-02-08T12:16:29.656Z,88.70
2018-02-08T12:17:36.137Z,88.47
2018-02-08T12:18:41.873Z,88.57
2018-02-08T12:19:47.585Z,87.88
2018-02-08T12:20:54.089Z,96.35
2018-02-08T12:21:59.850Z,83.57
2018-02-08T12:23:05.229Z,88.80
2018-02-08T12:24:11.006Z,87.30
2018-02-08T12:25:16.756Z,83.18
2018-02-08T12:26:22.476Z,87.40
2018-02-08T12:27:28.186Z,90.95
2018-02-08T12:28:34.700Z,84.68
2018-02-08T12:29:40.451Z,87.57
2018-02-08T12:30:46.217Z,79.43
2018-02-08T12:31:52.766Z,79.05
2018-02-08T12:32:58.661Z,83.75
2018-02-08T12:34:04.142Z,88.45
2018-02-08T12:35:09.888Z,90.93
2018-02-08T12:36:16.370Z,70.03
2018-02-08T12:37:22.860Z,76.57
2018-02-08T12:38:28.660Z,82.82
2018-02-08T12:39:35.143Z,81.43
2018-02-08T12:40:40.882Z,81.55
2018-02-08T12:41:46.613Z,75.43
2018-02-08T12:42:53.087Z,71.70
2018-02-08T12:43:58.502Z,67.40
2018-02-08T12:45:04.658Z,67.05
2018-02-08T12:46:11.157Z,73.00
2018-02-08T12:47:16.763Z,67.78
2018-02-08T12:48:22.477Z,72.05
2018-02-08T12:49:28.989Z,73.25
2018-02-08T12:50:34.697Z,76.53
2018-02-08T12:51:40.457Z,71.87
2018-02-08T12:52:46.181Z,65.37
2018-02-08T12:53:51.915Z,65.00
2018-02-08T12:54:58.388Z,62.72
2018-02-08T12:56:04.129Z,61.22
2018-02-08T12:57:09.875Z,67.43
2018-02-08T12:58:15.614Z,64.47
2018-02-08T12:59:21.333Z,56.67
2018-02-08T13:00:27.876Z,61.55
2018-02-08T13:01:33.642Z,57.70
2018-02-08T13:02:40.123Z,58.67
2018-02-08T13:03:45.840Z,57.47
2018-02-08T13:04:52.308Z,59.28
2018-02-08T13:05:58.009Z,55.10
2018-02-08T13:07:03.711Z,62.55
2018-02-08T13:08:09.901Z,61.53
2018-02-08T13:09:17.295Z,57.88
2018-02-08T13:10:23.317Z,54.95
2018-02-08T13:11:29.211Z,62.42
2018-02-08T13:12:34.983Z,63.42
2018-02-08T13:13:40.883Z,64.55
2018-02-08T13:14:47.561Z,59.40
2018-02-08T13:15:54.404Z,63.10
2018-02-08T13:17:00.335Z,66.57
2018-02-08T13:18:06.791Z,59.88
2018-02-08T13:19:13.538Z,55.30
2018-02-08T13:20:20.263Z,60.42
2018-02-08T13:21:26.213Z,60.30
2018-02-08T13:22:32.175Z,58.03
2018-02-08T13:23:38.353Z,57.10
2018-02-08T13:24:44.738Z,61.17
2018-02-08T13:25:51.295Z,59.42
2018-02-08T13:26:57.716Z,64.18
2018-02-08T13:28:03.718Z,59.38
2018-02-08T13:29:09.598Z,66.07
2018-02-08T13:30:15.599Z,59.22
2018-02-08T13:32:58.070Z,56.00
2018-02-08T13:34:04.668Z,45.60
2018-02-08T13:35:11.490Z,47.08
2018-02-08T13:36:17.339Z,49.90
2018-02-08T13:37:23.277Z,52.60
2018-02-08T13:38:29.139Z,47.83
2018-02-08T13:41:14.771Z,50.70
2018-02-08T13:42:20.853Z,46.53
2018-02-08T13:43:26.603Z,48.20
2018-02-08T13:44:32.816Z,71.97
2018-02-08T13:45:39.333Z,51.05
2018-02-08T13:46:47.913Z,181.90
2018-02-08T13:49:29.820Z,170.52
2018-02-08T13:50:41.329Z,64.10
2018-02-08T13:53:36.429Z,55.90
2018-02-08T13:54:44.549Z,53.97
2018-02-08T13:55:55.788Z,64.50
2018-02-08T13:57:07.068Z,61.72
2018-02-08T13:58:18.917Z,60.30
2018-02-08T13:59:30.983Z,62.65
2018-02-08T14:00:40.490Z,64.68
2018-02-08T14:01:52.198Z,67.85
2018-02-08T14:02:57.945Z,61.75
2018-02-08T14:04:03.914Z,65.93
2018-02-08T14:05:09.871Z,65.53
2018-02-08T14:06:16.699Z,70.93
2018-02-08T14:07:22.665Z,80.47
2018-02-08T14:08:28.597Z,82.70
2018-02-08T14:09:35.328Z,95.45
2018-02-08T14:10:42.878Z,92.72
2018-02-08T14:11:50.428Z,87.97
2018-02-08T14:12:56.323Z,94.00
2018-02-08T14:14:02.192Z,92.88
2018-02-08T14:15:08.108Z,95.55
2018-02-08T14:16:14.078Z,87.80
2018-02-08T14:17:19.998Z,91.68
2018-02-08T14:18:26.022Z,94.30
2018-02-08T14:19:31.790Z,99.07